createdAt,value
2019-03-11T00:01:36.431Z,1.20
2019-03-11T00:04:06.170Z,2.00
2019-03-11T00:06:35.666Z,1.87
2019-03-11T00:09:06.046Z,1.40
2019-03-11T00:11:35.353Z,1.63
2019-03-11T00:14:04.590Z,1.53
2019-03-11T00:16:33.582Z,1.70
2019-03-11T00:19:02.529Z,2.00
2019-03-11T00:21:31.476Z,1.60
2019-03-11T00:24:00.356Z,1.60
2019-03-11T00:26:29.204Z,1.80
2019-03-11T00:28:58.092Z,1.67
2019-03-11T00:31:26.963Z,1.60
2019-03-11T00:33:55.829Z,1.30
2019-03-11T00:36:24.808Z,1.47
2019-03-11T00:38:53.854Z,1.90
2019-03-11T00:41:22.791Z,1.63
2019-03-11T00:43:51.748Z,1.63
2019-03-11T00:46:20.571Z,1.73
2019-03-11T00:48:50.647Z,2.00
2019-03-11T00:51:19.519Z,1.77
2019-03-11T00:53:48.491Z,1.70
2019-03-11T00:56:17.381Z,1.90
2019-03-11T00:58:46.374Z,2.67
2019-03-11T01:01:15.722Z,1.40
2019-03-11T01:03:44.626Z,2.00
2019-03-11T01:06:13.490Z,1.50
2019-03-11T01:08:42.412Z,1.43
2019-03-11T01:11:11.349Z,1.67
2019-03-11T01:13:40.246Z,1.60
2019-03-11T01:16:09.210Z,1.70
2019-03-11T01:18:38.113Z,1.87
2019-03-11T01:21:07.052Z,2.80
2019-03-11T01:23:35.955Z,1.90
2019-03-11T01:26:04.874Z,1.57
2019-03-11T01:28:33.938Z,1.50
2019-03-11T01:31:02.839Z,1.67
2019-03-11T01:33:31.741Z,1.77
2019-03-11T01:36:00.611Z,2.07
2019-03-11T01:38:29.715Z,1.80
2019-03-11T01:40:58.598Z,2.20
2019-03-11T01:43:27.750Z,1.83
2019-03-11T01:45:56.725Z,1.43
2019-03-11T01:48:25.622Z,1.60
2019-03-11T01:50:54.565Z,1.10
2019-03-11T01:53:23.477Z,1.10
2019-03-11T01:55:52.348Z,1.77
2019-03-11T01:58:21.375Z,1.40
2019-03-11T02:00:50.414Z,1.47
2019-03-11T02:03:19.357Z,1.70
2019-03-11T02:05:48.304Z,1.07
2019-03-11T02:08:17.243Z,1.30
2019-03-11T02:10:46.128Z,1.50
2019-03-11T02:13:15.122Z,1.70
2019-03-11T02:15:44.078Z,1.47
2019-03-11T02:18:13.256Z,1.00
2019-03-11T02:20:42.171Z,2.00
2019-03-11T02:23:11.061Z,1.60
2019-03-11T02:25:40.158Z,1.30
2019-03-11T02:28:09.191Z,1.40
2019-03-11T02:30:38.106Z,1.43
2019-03-11T02:33:07.097Z,1.73
2019-03-11T02:35:35.991Z,1.60
2019-03-11T02:38:04.882Z,1.40
2019-03-11T02:40:33.754Z,1.40
2019-03-11T02:43:02.549Z,1.70
2019-03-11T02:45:31.301Z,1.90
2019-03-11T02:48:00.259Z,1.40
2019-03-11T02:50:29.119Z,1.20
2019-03-11T02:52:58.061Z,1.37
2019-03-11T02:55:26.951Z,1.70
2019-03-11T02:57:55.964Z,1.70
2019-03-11T03:00:24.915Z,1.87
2019-03-11T03:03:18.974Z,1.90
2019-03-11T03:05:54.073Z,1.87
2019-03-11T03:08:23.113Z,1.50
2019-03-11T03:10:51.959Z,2.37
2019-03-11T03:13:20.831Z,1.50
2019-03-11T03:15:49.625Z,1.67
2019-03-11T03:18:18.640Z,2.00
2019-03-11T03:20:47.605Z,1.63
2019-03-11T03:23:16.457Z,1.90
2019-03-11T03:25:45.469Z,1.73
2019-03-11T03:28:14.438Z,1.77
2019-03-11T03:30:43.401Z,1.57
2019-03-11T03:33:12.321Z,1.50
2019-03-11T03:35:41.226Z,2.20
2019-03-11T03:38:10.299Z,1.80
2019-03-11T03:40:39.270Z,2.10
2019-03-11T03:43:08.316Z,2.10
2019-03-11T03:45:40.243Z,2.03
2019-03-11T03:48:09.423Z,2.20
2019-03-11T03:50:39.364Z,1.70
2019-03-11T03:53:08.701Z,1.70
2019-03-11T03:55:37.735Z,1.80
2019-03-11T03:58:07.067Z,1.77
2019-03-11T04:00:36.119Z,1.37
2019-03-11T04:03:05.122Z,1.60
2019-03-11T04:05:34.183Z,1.47
2019-03-11T04:08:03.465Z,2.30
2019-03-11T04:10:33.266Z,1.97
2019-03-11T04:13:02.469Z,1.90
2019-03-11T04:15:31.379Z,2.13
2019-03-11T04:18:00.546Z,2.30
2019-03-11T04:20:29.969Z,1.70
2019-03-11T04:22:59.634Z,2.03
2019-03-11T04:25:29.912Z,1.50
2019-03-11T04:27:59.032Z,2.60
2019-03-11T04:30:28.173Z,1.77
2019-03-11T04:32:57.067Z,1.97
2019-03-11T04:35:26.003Z,1.83
2019-03-11T04:37:54.994Z,1.83
2019-03-11T04:40:23.866Z,1.53
2019-03-11T04:42:52.727Z,1.50
2019-03-11T04:45:21.786Z,2.03
2019-03-11T04:47:50.765Z,2.00
2019-03-11T04:50:19.737Z,2.00
2019-03-11T04:52:48.943Z,1.30
2019-03-11T04:55:18.459Z,2.12
2019-03-11T04:57:52.412Z,1.97
2019-03-11T05:00:23.514Z,1.57
2019-03-11T05:02:52.359Z,2.00
2019-03-11T05:05:21.499Z,2.27
2019-03-11T05:07:50.526Z,1.67
2019-03-11T05:10:19.546Z,1.77
2019-03-11T05:12:48.349Z,2.00
2019-03-11T05:15:17.326Z,1.30
2019-03-11T05:17:48.360Z,1.47
2019-03-11T05:20:17.195Z,1.20
2019-03-11T05:22:46.136Z,0.93
2019-03-11T05:25:15.136Z,1.12
2019-03-11T05:27:44.584Z,1.20
2019-03-11T05:30:15.270Z,1.47
2019-03-11T05:32:44.093Z,1.27
2019-03-11T05:35:13.063Z,0.93
2019-03-11T05:37:42.262Z,0.63
2019-03-11T05:40:12.030Z,0.77
2019-03-11T05:42:40.963Z,1.00
2019-03-11T05:45:11.902Z,1.10
2019-03-11T05:47:41.555Z,1.57
2019-03-11T05:50:12.470Z,2.30
2019-03-11T05:52:41.402Z,2.20
2019-03-11T05:55:10.946Z,1.83
2019-03-11T05:57:40.623Z,2.00
2019-03-11T06:00:17.075Z,2.20
2019-03-11T06:02:46.120Z,1.90
2019-03-11T06:05:15.430Z,1.97
2019-03-11T06:07:44.382Z,2.20
2019-03-11T06:10:13.468Z,2.20
2019-03-11T06:12:42.445Z,1.90
2019-03-11T06:15:12.272Z,2.50
2019-03-11T06:17:41.195Z,2.50
2019-03-11T06:20:34.958Z,2.40
2019-03-11T06:23:04.706Z,2.80
2019-03-11T06:25:33.542Z,1.97
2019-03-11T06:28:02.888Z,2.30
2019-03-11T06:30:32.180Z,2.60
2019-03-11T06:33:01.046Z,2.37
2019-03-11T06:35:29.981Z,2.00
2019-03-11T06:37:58.802Z,2.00
2019-03-11T06:40:28.166Z,1.60
2019-03-11T06:42:56.978Z,1.90
2019-03-11T06:45:25.829Z,1.93
2019-03-11T06:47:54.780Z,2.47
2019-03-11T06:50:23.584Z,2.23
2019-03-11T06:52:52.638Z,2.60
2019-03-11T06:55:21.513Z,3.00
2019-03-11T06:57:50.354Z,2.93
2019-03-11T07:00:19.222Z,2.80
2019-03-11T07:02:48.027Z,2.40
2019-03-11T07:05:20.643Z,3.20
2019-03-11T07:07:47.623Z,2.80
2019-03-11T07:10:16.654Z,2.77
2019-03-11T07:12:45.516Z,2.80
2019-03-11T07:15:14.885Z,2.60
2019-03-11T07:17:43.943Z,2.60
2019-03-11T07:20:13.673Z,2.67
2019-03-11T07:22:42.492Z,2.43
2019-03-11T07:25:11.298Z,3.10
2019-03-11T07:27:40.161Z,2.37
2019-03-11T07:30:11.287Z,2.37
2019-03-11T07:32:40.128Z,3.00
2019-03-11T07:35:10.113Z,3.07
2019-03-11T07:37:38.923Z,2.73
2019-03-11T07:40:07.815Z,2.43
2019-03-11T07:42:36.596Z,2.30
2019-03-11T07:45:06.311Z,2.47
2019-03-11T07:47:35.121Z,2.70
2019-03-11T07:50:04.253Z,2.50
2019-03-11T07:52:33.207Z,3.00
2019-03-11T07:55:02.086Z,2.50
2019-03-11T07:57:30.890Z,2.57
2019-03-11T07:59:59.697Z,2.30
2019-03-11T08:02:28.665Z,2.53
2019-03-11T08:04:57.545Z,2.67
2019-03-11T08:07:27.488Z,1.50
2019-03-11T08:09:56.750Z,1.57
2019-03-11T08:12:25.607Z,1.67
2019-03-11T08:14:54.480Z,1.20
2019-03-11T08:17:23.286Z,1.50
2019-03-11T08:19:52.117Z,1.13
2019-03-11T08:22:20.900Z,1.73
2019-03-11T08:24:49.715Z,1.80
2019-03-11T08:27:18.524Z,2.30
2019-03-11T08:29:48.487Z,2.53
2019-03-11T08:32:17.281Z,3.00
2019-03-11T08:34:46.072Z,2.60
2019-03-11T08:37:14.858Z,2.37
2019-03-11T08:39:43.835Z,2.20
2019-03-11T08:42:12.745Z,1.83
2019-03-11T08:44:41.523Z,1.93
2019-03-11T08:47:10.413Z,2.50
2019-03-11T08:49:39.463Z,2.47
2019-03-11T08:52:08.404Z,2.20
2019-03-11T08:54:37.299Z,2.80
2019-03-11T08:57:06.107Z,2.50
2019-03-11T08:59:34.961Z,2.50
2019-03-11T09:02:03.850Z,2.40
2019-03-11T09:04:32.675Z,2.67
2019-03-11T09:07:01.531Z,2.07
2019-03-11T09:09:31.684Z,1.80
2019-03-11T09:12:00.934Z,1.83
2019-03-11T09:14:29.777Z,2.13
2019-03-11T09:16:58.933Z,2.03
2019-03-11T09:19:29.270Z,3.03
2019-03-11T09:21:58.545Z,2.20
2019-03-11T09:24:27.451Z,2.10
2019-03-11T09:26:56.323Z,2.50
2019-03-11T09:29:25.171Z,2.67
2019-03-11T09:31:54.155Z,2.33
2019-03-11T09:34:22.931Z,1.90
2019-03-11T09:36:51.729Z,1.97
2019-03-11T09:39:20.682Z,1.87
2019-03-11T09:41:49.506Z,2.77
2019-03-11T09:44:18.305Z,1.87
2019-03-11T09:46:47.239Z,2.45
2019-03-11T09:49:16.256Z,2.13
2019-03-11T09:51:45.050Z,2.37
2019-03-11T09:54:13.853Z,2.27
2019-03-11T09:56:43.596Z,2.80
2019-03-11T09:59:13.869Z,2.40
2019-03-11T10:01:42.808Z,1.77
2019-03-11T10:04:11.615Z,2.03
2019-03-11T10:06:40.693Z,1.77
2019-03-11T10:09:09.688Z,1.83
2019-03-11T10:11:38.506Z,1.83
2019-03-11T10:14:07.373Z,1.90
2019-03-11T10:16:36.106Z,1.97
2019-03-11T10:19:05.421Z,1.80
2019-03-11T10:21:34.187Z,1.83
2019-03-11T10:24:02.997Z,1.50
2019-03-11T10:26:31.842Z,1.37
2019-03-11T10:29:00.755Z,1.83
2019-03-11T10:31:29.653Z,2.13
2019-03-11T10:33:58.437Z,1.93
2019-03-11T10:36:27.322Z,2.23
2019-03-11T10:38:56.258Z,1.70
2019-03-11T10:41:25.049Z,2.20
2019-03-11T10:43:53.881Z,2.03
2019-03-11T10:46:22.691Z,1.87
2019-03-11T10:48:51.729Z,2.47
2019-03-11T10:51:20.566Z,1.90
2019-03-11T10:53:49.445Z,1.40
2019-03-11T10:56:18.254Z,2.10
2019-03-11T10:58:47.214Z,1.53
2019-03-11T11:01:16.107Z,1.93
2019-03-11T11:03:44.918Z,1.63
2019-03-11T11:06:13.711Z,1.40
2019-03-11T11:08:43.746Z,1.70
2019-03-11T11:11:12.573Z,1.63
2019-03-11T11:13:41.388Z,1.27
2019-03-11T11:16:10.273Z,1.90
2019-03-11T11:18:39.204Z,1.50
2019-03-11T11:21:08.159Z,1.67
2019-03-11T11:23:37.027Z,2.00
2019-03-11T11:26:05.895Z,1.40
2019-03-11T11:28:34.709Z,1.60
2019-03-11T11:31:03.825Z,1.93
2019-03-11T11:33:32.630Z,1.50
2019-03-11T11:36:02.709Z,1.27
2019-03-11T11:38:31.715Z,1.67
2019-03-11T11:41:00.536Z,1.53
2019-03-11T11:43:29.325Z,1.90
2019-03-11T11:45:58.277Z,1.37
2019-03-11T11:48:27.260Z,1.60
2019-03-11T11:50:56.059Z,1.47
2019-03-11T11:53:25.328Z,1.77
2019-03-11T11:55:57.976Z,2.03
2019-03-11T11:58:25.085Z,2.03
2019-03-11T12:00:53.902Z,2.33
2019-03-11T12:03:22.721Z,1.73
2019-03-11T12:05:51.564Z,1.83
2019-03-11T12:08:21.010Z,2.30
2019-03-11T12:10:49.752Z,1.93
2019-03-11T12:13:18.601Z,2.00
2019-03-11T12:15:47.405Z,2.33
2019-03-11T12:18:16.366Z,2.40
2019-03-11T12:20:45.264Z,2.10
2019-03-11T12:23:14.137Z,3.30
2019-03-11T12:25:42.951Z,2.60
2019-03-11T12:28:13.034Z,2.10
2019-03-11T12:30:42.011Z,2.90
2019-03-11T12:33:10.840Z,2.03
2019-03-11T12:35:39.691Z,2.53
2019-03-11T12:38:08.661Z,2.03
2019-03-11T12:40:37.856Z,2.50
2019-03-11T12:43:06.619Z,2.10
2019-03-11T12:45:35.555Z,2.30
2019-03-11T12:48:04.502Z,2.63
2019-03-11T12:50:33.399Z,2.73
2019-03-11T12:53:02.218Z,3.07
2019-03-11T12:55:31.019Z,2.63
2019-03-11T12:57:59.991Z,2.23
2019-03-11T13:00:28.850Z,2.57
2019-03-11T13:02:57.812Z,2.03
2019-03-11T13:05:26.745Z,2.87
2019-03-11T13:07:55.752Z,2.20
2019-03-11T13:10:24.673Z,2.80
2019-03-11T13:12:53.648Z,2.40
2019-03-11T13:15:22.545Z,2.50
2019-03-11T13:17:51.524Z,2.73
2019-03-11T13:20:23.846Z,2.53
2019-03-11T13:22:52.779Z,2.30
2019-03-11T13:25:21.705Z,2.87
2019-03-11T13:27:50.769Z,2.73
2019-03-11T13:30:19.735Z,2.97
2019-03-11T13:32:48.560Z,2.10
2019-03-11T13:35:17.363Z,2.20
2019-03-11T13:37:46.348Z,2.30
2019-03-11T13:40:15.920Z,2.47
2019-03-11T13:42:44.873Z,2.80
2019-03-11T13:45:14.562Z,2.83
2019-03-11T13:47:43.439Z,2.47
2019-03-11T13:50:12.556Z,2.47
2019-03-11T13:52:41.630Z,2.43
2019-03-11T13:55:11.593Z,2.75
2019-03-11T13:57:41.565Z,2.40
2019-03-11T14:00:10.925Z,3.03
2019-03-11T14:02:39.748Z,2.57
2019-03-11T14:05:08.683Z,2.07
2019-03-11T14:07:37.602Z,2.70
2019-03-11T14:10:06.939Z,2.63
2019-03-11T14:12:35.748Z,2.60
2019-03-11T14:15:05.075Z,2.47
2019-03-11T14:17:33.888Z,2.17
2019-03-11T14:20:02.711Z,2.60
2019-03-11T14:22:31.527Z,2.20
2019-03-11T14:25:00.348Z,2.53
2019-03-11T14:27:29.142Z,3.07
2019-03-11T14:29:58.034Z,2.30
2019-03-11T14:32:26.871Z,2.27
2019-03-11T14:34:55.646Z,2.77
2019-03-11T14:37:24.450Z,2.60
2019-03-11T14:39:53.436Z,2.30
2019-03-11T14:42:22.258Z,2.67
2019-03-11T14:44:51.042Z,2.47
2019-03-11T14:47:19.861Z,2.57
2019-03-11T14:49:48.716Z,3.23
2019-03-11T14:52:17.514Z,3.33
2019-03-11T14:54:46.429Z,3.03
2019-03-11T14:57:15.204Z,2.57
2019-03-11T14:59:44.335Z,3.00
2019-03-11T15:02:13.385Z,2.57
2019-03-11T15:04:42.197Z,2.50
2019-03-11T15:07:10.947Z,2.77
2019-03-11T15:09:50.795Z,2.20
2019-03-11T15:12:10.683Z,2.23
2019-03-11T15:14:39.545Z,2.60
2019-03-11T15:17:08.470Z,2.20
2019-03-11T15:19:37.470Z,2.50
2019-03-11T15:22:06.982Z,2.63
2019-03-11T15:24:36.073Z,3.07
2019-03-11T15:27:05.077Z,2.33
2019-03-11T15:29:34.036Z,2.90
2019-03-11T15:32:02.942Z,2.73
2019-03-11T15:34:32.531Z,2.90
2019-03-11T15:37:01.935Z,3.37
2019-03-11T15:39:31.167Z,2.90
2019-03-11T15:41:59.994Z,3.13
2019-03-11T15:44:28.796Z,3.13
2019-03-11T15:46:57.682Z,2.20
2019-03-11T15:49:27.685Z,3.33
2019-03-11T15:51:56.467Z,2.83
2019-03-11T15:54:25.372Z,2.57
2019-03-11T15:56:54.171Z,3.17
2019-03-11T15:59:23.201Z,2.37
2019-03-11T16:01:52.184Z,2.17
2019-03-11T16:04:21.294Z,2.80
2019-03-11T16:06:50.182Z,2.80
2019-03-11T16:09:20.243Z,3.03
2019-03-11T16:11:49.125Z,2.53
2019-03-11T16:14:18.024Z,2.50
2019-03-11T16:16:46.926Z,2.50
2019-03-11T16:19:16.125Z,2.27
2019-03-11T16:21:44.946Z,2.37
2019-03-11T16:24:13.887Z,2.37
2019-03-11T16:26:42.927Z,2.63
2019-03-11T16:29:11.905Z,2.30
2019-03-11T16:31:40.848Z,2.60
2019-03-11T16:34:09.671Z,2.90
2019-03-11T16:36:38.645Z,2.20
2019-03-11T16:39:08.875Z,2.57
2019-03-11T16:41:38.061Z,2.30
2019-03-11T16:44:07.287Z,1.93
2019-03-11T16:46:36.112Z,2.70
2019-03-11T16:49:05.202Z,2.37
2019-03-11T16:51:34.183Z,2.50
2019-03-11T16:54:03.182Z,3.00
2019-03-11T16:56:32.050Z,2.83
2019-03-11T16:59:01.154Z,2.50
2019-03-11T17:01:30.241Z,2.63
2019-03-11T17:03:59.240Z,2.50
2019-03-11T17:06:28.324Z,2.70
2019-03-11T17:08:58.424Z,2.90
2019-03-11T17:11:27.328Z,2.60
2019-03-11T17:13:56.204Z,2.90
2019-03-11T17:16:25.160Z,2.57
2019-03-11T17:18:54.052Z,3.30
2019-03-11T17:21:23.060Z,2.53
2019-03-11T17:23:51.907Z,2.70
2019-03-11T17:26:20.701Z,2.07
2019-03-11T17:28:49.584Z,2.10
2019-03-11T17:31:18.407Z,2.17
2019-03-11T17:33:47.340Z,2.27
2019-03-11T17:36:16.147Z,2.67
2019-03-11T17:38:45.192Z,2.57
2019-03-11T17:41:14.325Z,2.63
2019-03-11T17:43:43.137Z,3.20
2019-03-11T17:46:12.125Z,3.03
2019-03-11T17:48:41.212Z,1.50
2019-03-11T17:51:10.209Z,0.87
2019-03-11T17:53:39.403Z,1.07
2019-03-11T17:56:08.279Z,1.13
2019-03-11T17:58:37.285Z,1.37
2019-03-11T18:01:06.299Z,1.50
2019-03-11T18:03:35.259Z,1.80
2019-03-11T18:06:11.473Z,1.47
2019-03-11T18:08:35.097Z,1.97
2019-03-11T18:11:04.111Z,1.63
2019-03-11T18:13:33.061Z,1.33
2019-03-11T18:16:01.955Z,1.87
2019-03-11T18:18:33.293Z,2.30
2019-03-11T18:21:01.439Z,1.90
2019-03-11T18:23:30.383Z,1.63
2019-03-11T18:25:59.244Z,1.70
2019-03-11T18:28:28.310Z,2.40
2019-03-11T18:30:57.250Z,1.70
2019-03-11T18:33:26.203Z,2.30
2019-03-11T18:35:55.183Z,1.90
2019-03-11T18:38:25.124Z,2.47
2019-03-11T18:40:54.452Z,2.80
2019-03-11T18:43:23.642Z,2.67
2019-03-11T18:45:52.504Z,2.63
2019-03-11T18:48:21.417Z,2.23
2019-03-11T18:50:50.405Z,2.23
2019-03-11T18:53:19.553Z,3.20
2019-03-11T18:55:48.709Z,2.87
2019-03-11T18:58:18.858Z,2.47
2019-03-11T19:00:47.779Z,4.43
2019-03-11T19:03:16.743Z,2.53
2019-03-11T19:05:45.768Z,2.90
2019-03-11T19:08:14.920Z,2.57
2019-03-11T19:10:43.818Z,2.63
2019-03-11T19:13:12.897Z,2.90
2019-03-11T19:15:41.933Z,3.37
2019-03-11T19:18:11.035Z,3.07
2019-03-11T19:20:40.086Z,3.00
2019-03-11T19:23:09.110Z,2.80
2019-03-11T19:25:38.261Z,3.07
2019-03-11T19:28:08.264Z,3.50
2019-03-11T19:30:37.253Z,2.37
2019-03-11T19:33:06.256Z,2.40
2019-03-11T19:35:35.395Z,3.00
2019-03-11T19:38:04.540Z,2.90
2019-03-11T19:40:33.500Z,2.13
2019-03-11T19:43:02.386Z,2.43
2019-03-11T19:45:31.356Z,2.67
2019-03-11T19:48:00.482Z,2.37
2019-03-11T19:50:29.343Z,2.60
2019-03-11T19:52:59.505Z,2.90
2019-03-11T19:55:28.614Z,2.30
2019-03-11T19:57:57.726Z,2.67
2019-03-11T20:00:26.666Z,1.97
2019-03-11T20:02:55.674Z,2.97
2019-03-11T20:05:25.107Z,2.70
2019-03-11T20:07:54.093Z,3.30
2019-03-11T20:10:23.435Z,2.13
2019-03-11T20:12:52.396Z,2.90
2019-03-11T20:15:21.355Z,2.73
2019-03-11T20:17:50.328Z,2.50
2019-03-11T20:20:19.388Z,2.67
2019-03-11T20:22:48.489Z,3.43
2019-03-11T20:25:20.279Z,2.60
2019-03-11T20:27:49.587Z,2.30
2019-03-11T20:30:19.866Z,2.27
2019-03-11T20:32:48.829Z,2.67
2019-03-11T20:35:18.134Z,2.67
2019-03-11T20:37:47.249Z,3.03
2019-03-11T20:40:16.192Z,2.67
2019-03-11T20:42:45.198Z,3.10
2019-03-11T20:45:14.205Z,4.00
2019-03-11T20:47:43.203Z,3.57
2019-03-11T20:50:12.907Z,3.87
2019-03-11T20:52:41.756Z,4.07
2019-03-11T20:55:11.600Z,3.87
2019-03-11T20:57:40.671Z,2.93
2019-03-11T21:00:13.292Z,3.40
2019-03-11T21:02:42.373Z,2.87
2019-03-11T21:05:11.285Z,2.83
2019-03-11T21:07:40.403Z,3.73
2019-03-11T21:10:11.880Z,4.03
2019-03-11T21:12:40.727Z,4.00
2019-03-11T21:15:09.785Z,4.30
2019-03-11T21:17:38.868Z,3.70
2019-03-11T21:20:13.543Z,3.67
2019-03-11T21:22:41.185Z,4.60
2019-03-11T21:25:12.607Z,3.37
2019-03-11T21:27:43.644Z,3.40
2019-03-11T21:30:15.124Z,3.57
2019-03-11T21:32:44.069Z,3.30
2019-03-11T21:35:13.180Z,3.73
2019-03-11T21:37:42.315Z,3.57
2019-03-11T21:40:13.182Z,2.90
2019-03-11T21:42:42.391Z,2.93
2019-03-11T21:45:12.270Z,2.60
2019-03-11T21:47:41.538Z,2.97
2019-03-11T21:50:15.376Z,2.60
2019-03-11T21:52:44.272Z,3.60
2019-03-11T21:55:13.334Z,2.47
2019-03-11T21:57:42.272Z,3.20
2019-03-11T22:00:13.907Z,3.07
2019-03-11T22:02:42.925Z,2.87
2019-03-11T22:05:11.829Z,3.00
2019-03-11T22:07:40.864Z,2.90
2019-03-11T22:10:10.440Z,2.93
2019-03-11T22:12:39.319Z,3.08
2019-03-11T22:15:10.141Z,3.00
2019-03-11T22:17:39.002Z,2.60
2019-03-11T22:20:09.339Z,2.30
2019-03-11T22:22:38.200Z,2.30
2019-03-11T22:25:08.025Z,2.53
2019-03-11T22:27:37.021Z,2.63
2019-03-11T22:30:07.343Z,2.53
2019-03-11T22:32:36.191Z,2.57
2019-03-11T22:35:12.795Z,3.00
2019-03-11T22:40:23.295Z,2.67
2019-03-11T22:42:52.249Z,2.70
2019-03-11T22:45:21.583Z,2.80
2019-03-11T22:47:50.600Z,2.43
2019-03-11T22:50:19.788Z,2.50
2019-03-11T22:52:48.973Z,2.50
2019-03-11T22:55:18.579Z,2.90
2019-03-11T22:57:47.680Z,2.27
2019-03-11T23:00:28.909Z,2.83
2019-03-11T23:02:57.822Z,2.80
2019-03-11T23:05:26.778Z,2.80
2019-03-11T23:07:55.860Z,2.30
2019-03-11T23:10:24.752Z,2.27
2019-03-11T23:12:53.611Z,2.33
2019-03-11T23:15:22.975Z,2.77
2019-03-11T23:17:51.861Z,2.57
2019-03-11T23:20:20.849Z,2.72
2019-03-11T23:22:50.120Z,2.93
2019-03-11T23:25:19.041Z,2.60
2019-03-11T23:27:48.136Z,2.60
2019-03-11T23:30:17.263Z,2.87
2019-03-11T23:32:46.345Z,2.60
2019-03-11T23:35:15.234Z,2.53
2019-03-11T23:37:44.245Z,1.83
2019-03-11T23:40:13.242Z,2.47
2019-03-11T23:42:42.088Z,2.33
2019-03-11T23:45:11.635Z,2.53
2019-03-11T23:47:42.655Z,2.30
2019-03-11T23:50:11.696Z,2.83
2019-03-11T23:52:41.062Z,2.37
2019-03-11T23:55:10.241Z,2.33
2019-03-11T23:57:39.212Z,2.40
